Milan Bergamo Airport

LIME · Lombardy, Italy

METAR history LIME · Milan Bergamo Airport

Below you see METARs of the last few days. Select a year to browse through older METARs, from the year 2007 onwards.

December 8, 2022

Time Code Weather Temp. Visibility Ceiling Wind METAR/SPECI
06:20
V
0 °C 10 km+ - 360° 360° 2 kt METAR LIME 080520Z 36002KT CAVOK 00/M02 Q1011 NOSIG
05:50
V
0 °C 10 km+ - 010° 010° 3 kt METAR LIME 080450Z 01003KT CAVOK 00/M01 Q1011 NOSIG
05:20
V
0 °C 10 km+ - 010° 010° 4 kt METAR LIME 080420Z 01004KT CAVOK 00/M01 Q1011 NOSIG
04:50
V
1 °C 10 km+ - 010° 010° 4 kt METAR LIME 080350Z 01004KT CAVOK 01/M01 Q1011 NOSIG
04:20
V
1 °C 10 km+ - 360° 360° 4 kt METAR LIME 080320Z 36004KT CAVOK 01/M01 Q1011 NOSIG
03:50
V
1 °C 10 km+ - 360° 360° 4 kt METAR LIME 080250Z 36004KT CAVOK 01/M01 Q1011 NOSIG
03:20
V
1 °C 10 km+ - 360° 360° 4 kt METAR LIME 080220Z 36004KT CAVOK 01/M01 Q1012 NOSIG
02:50
V
1 °C 10 km+ - 360° 360° 3 kt METAR LIME 080150Z 36003KT CAVOK 01/M01 Q1012 NOSIG
02:20
V
1 °C 10 km+ - 010° 010° 3 kt METAR LIME 080120Z 01003KT CAVOK 01/M00 Q1012 NOSIG
01:50
V
0 °C 10 km+ - 010° 010° 4 kt METAR LIME 080050Z 01004KT CAVOK 00/M01 Q1012 NOSIG
01:20
V
1 °C 10 km+ - 360° 360° 2 kt METAR LIME 080020Z 36002KT CAVOK 01/M01 Q1012 NOSIG
00:50
V
1 °C 10 km+ - 360° 360° 4 kt METAR LIME 072350Z 36004KT CAVOK 01/M00 Q1012 NOSIG
00:20
V
1 °C 10 km+ - 020° 020° 3 kt METAR LIME 072320Z 02003KT CAVOK 01/M00 Q1012 NOSIG

December 7, 2022

Time Code Weather Temp. Visibility Ceiling Wind METAR/SPECI
23:50
V
2 °C 10 km+ - 010° 010° 4 kt METAR LIME 072250Z 01004KT CAVOK 02/00 Q1012 NOSIG
23:20
V
2 °C 10 km+ - 010° 010° 4 kt METAR LIME 072220Z 01004KT CAVOK 02/00 Q1012 NOSIG
22:50
V
1 °C 10 km+ - 010° 010° 5 kt METAR LIME 072150Z 01005KT CAVOK 01/00 Q1012 NOSIG
22:20
V
1 °C 10 km+ - 360° 360° 4 kt METAR LIME 072120Z 36004KT CAVOK 01/00 Q1012 NOSIG
21:50
V
1 °C 10 km+ - 010° 010° 3 kt METAR LIME 072050Z 01003KT CAVOK 01/01 Q1012 NOSIG
21:20
V
2 °C 10 km+ - 350° 350° 2 kt METAR LIME 072020Z 35002KT CAVOK 02/01 Q1012 NOSIG
20:50
V
2 °C 10 km+ - 360° 360° 4 kt METAR LIME 071950Z 36004KT CAVOK 02/01 Q1012 NOSIG
20:20
V
2 °C 10 km+ - 020° 020° 3 kt METAR LIME 071920Z 02003KT CAVOK 02/02 Q1012 NOSIG
19:50
V
1 °C 10 km+ - 360° 360° 2 kt METAR LIME 071850Z 36002KT CAVOK 01/01 Q1012 NOSIG
19:20
V
1 °C 8 km - 350° 350° 1 kt METAR LIME 071820Z 35001KT 8000 NSC 01/01 Q1012 NOSIG
18:50
M
0 °C 7 km - 330° 330° 1 kt METAR LIME 071750Z 33001KT 7000 R28/1100U MIFG NSC 00/00 Q1012 NOSIG
18:20
L
0 °C 800 m 300 ft Var Var 1 kt METAR LIME 071720Z VRB01KT 0800 R28/0350N BCFG VV003 00/00 Q1012 BECMG 1200 BCFG
17:50
L
1 °C 300 m 100 ft Var Var 2 kt METAR LIME 071650Z VRB02KT 0300 R28/0250N FG VV001 01/01 Q1012 BECMG 1200 BCFG
17:20
L
2 °C 200 m 100 ft Var Var 1 kt METAR LIME 071620Z VRB01KT 0200 R28/0375N FG VV001 02/02 Q1012 NOSIG
16:50
L
3 °C 100 m 100 ft 190° 190° 3 kt METAR LIME 071550Z 19003KT 0100 R28/0325D FG VV001 03/02 Q1012 NOSIG
16:20
M
5 °C 5 km - 180° 180° 3 kt METAR LIME 071520Z 18003KT 5000 BR NSC 05/03 Q1012 BECMG 4000
15:50
M
7 °C 5 km - 190° 190° 3 kt METAR LIME 071450Z 19003KT 5000 BR NSC 07/03 Q1012 BECMG 4000
15:20
M
7 °C 7 km - 220° 220° 3 kt METAR LIME 071420Z 22003KT 170V250 7000 NSC 07/03 Q1011 NOSIG
14:50
V
7 °C 10 km+ - 230° 230° 3 kt METAR LIME 071350Z 23003KT CAVOK 07/03 Q1012 NOSIG
14:20
V
7 °C 10 km+ - 210° 210° 5 kt METAR LIME 071320Z 21005KT CAVOK 07/03 Q1012 NOSIG
13:50
V
7 °C 10 km+ - 200° 200° 5 kt METAR LIME 071250Z 20005KT CAVOK 07/03 Q1012 NOSIG
13:20
V
8 °C 10 km+ - 200° 200° 5 kt METAR LIME 071220Z 20005KT 180V240 CAVOK 08/03 Q1012 NOSIG
12:50
V
8 °C 10 km+ - 200° 200° 3 kt METAR LIME 071150Z 20003KT 170V240 CAVOK 08/01 Q1012 NOSIG
12:20
V
8 °C 10 km+ - 200° 200° 4 kt METAR LIME 071120Z 20004KT 130V240 CAVOK 08/02 Q1013 NOSIG
11:50
V
8 °C 10 km+ - Var Var 2 kt METAR LIME 071050Z VRB02KT CAVOK 08/01 Q1013 NOSIG
11:20
V
7 °C 10 km+ - Var Var 1 kt METAR LIME 071020Z VRB01KT CAVOK 07/01 Q1013 NOSIG
10:50
V
6 °C 10 km+ - Var Var 2 kt METAR LIME 070950Z VRB02KT CAVOK 06/00 Q1013 NOSIG
10:20
V
6 °C 10 km+ - Var Var 1 kt METAR LIME 070920Z VRB01KT CAVOK 06/01 Q1013 NOSIG
09:50
V
4 °C 10 km+ - 340° 340° 2 kt METAR LIME 070850Z 34002KT CAVOK 04/01 Q1013 NOSIG
09:20
V
3 °C 10 km+ - 360° 360° 3 kt METAR LIME 070820Z 36003KT CAVOK 03/M00 Q1013 NOSIG
08:50
V
1 °C 10 km+ - 010° 010° 4 kt METAR LIME 070750Z 01004KT CAVOK 01/M01 Q1013 NOSIG
08:20
V
1 °C 10 km+ - 360° 360° 4 kt METAR LIME 070720Z 36004KT CAVOK 01/M01 Q1013 NOSIG
07:50
V
1 °C 10 km+ - 360° 360° 3 kt METAR LIME 070650Z 36003KT CAVOK 01/M01 Q1013 NOSIG
07:20
V
1 °C 10 km+ - 010° 010° 4 kt METAR LIME 070620Z 01004KT CAVOK 01/M01 Q1013 NOSIG
06:50
V
1 °C 10 km+ - 360° 360° 4 kt METAR LIME 070550Z 36004KT CAVOK 01/M01 Q1013 NOSIG
06:20
V
1 °C 10 km+ - 360° 360° 3 kt METAR LIME 070520Z 36003KT CAVOK 01/M00 Q1012 NOSIG
05:50
V
1 °C 10 km+ - 360° 360° 2 kt METAR LIME 070450Z 36002KT CAVOK 01/M01 Q1012 NOSIG
05:20
V
1 °C 10 km+ - 010° 010° 3 kt METAR LIME 070420Z 01003KT CAVOK 01/M01 Q1013 NOSIG
04:50
V
2 °C 10 km+ - 010° 010° 4 kt METAR LIME 070350Z 01004KT CAVOK 02/M00 Q1013 NOSIG
04:20
V
0 °C 10 km+ - 360° 360° 5 kt METAR LIME 070320Z 36005KT CAVOK 00/M01 Q1013 NOSIG
03:50
V
1 °C 10 km+ - 350° 350° 2 kt METAR LIME 070250Z 35002KT CAVOK 01/M00 Q1013 NOSIG
03:20
V
1 °C 10 km+ - 360° 360° 3 kt METAR LIME 070220Z 36003KT CAVOK 01/M01 Q1013 NOSIG
02:50
V
1 °C 10 km+ - 010° 010° 3 kt METAR LIME 070150Z 01003KT CAVOK 01/M00 Q1013 NOSIG
02:20
V
2 °C 10 km+ - 360° 360° 6 kt METAR LIME 070120Z 36006KT CAVOK 02/M00 Q1013 NOSIG
01:50
V
1 °C 10 km+ - 010° 010° 5 kt METAR LIME 070050Z 01005KT CAVOK 01/M00 Q1014 NOSIG
01:20
V
1 °C 10 km+ - 360° 360° 5 kt METAR LIME 070020Z 36005KT CAVOK 01/M00 Q1014 NOSIG
00:50
V
2 °C 10 km+ - 360° 360° 4 kt METAR LIME 062350Z 36004KT CAVOK 02/00 Q1014 NOSIG
00:20
V
2 °C 10 km+ - 360° 360° 5 kt METAR LIME 062320Z 36005KT CAVOK 02/00 Q1014 NOSIG

December 6, 2022

Time Code Weather Temp. Visibility Ceiling Wind METAR/SPECI
23:50
V
2 °C 10 km+ - 360° 360° 5 kt METAR LIME 062250Z 36005KT CAVOK 02/00 Q1014 NOSIG
23:20
V
2 °C 10 km+ - 360° 360° 4 kt METAR LIME 062220Z 36004KT CAVOK 02/01 Q1014 NOSIG
22:50
V
2 °C 10 km+ - 010° 010° 6 kt METAR LIME 062150Z 01006KT CAVOK 02/00 Q1014 NOSIG
22:20
V
2 °C 10 km+ - 360° 360° 4 kt METAR LIME 062120Z 36004KT CAVOK 02/01 Q1014 NOSIG
21:50
V
2 °C 10 km+ - 360° 360° 5 kt METAR LIME 062050Z 36005KT CAVOK 02/01 Q1014 NOSIG
21:20
V
2 °C 10 km+ - 360° 360° 5 kt METAR LIME 062020Z 36005KT CAVOK 02/01 Q1014 NOSIG
20:50
V
3 °C 10 km+ - 350° 350° 3 kt METAR LIME 061950Z 35003KT CAVOK 03/02 Q1015 NOSIG
20:20
V
3 °C 10 km+ - 350° 350° 4 kt METAR LIME 061920Z 35004KT CAVOK 03/02 Q1015 NOSIG
19:50
V
3 °C 8 km - 010° 010° 4 kt METAR LIME 061850Z 01004KT 8000 NSC 03/02 Q1015 NOSIG
19:20
V
4 °C 8 km - 360° 360° 2 kt METAR LIME 061820Z 36002KT 8000 NSC 04/03 Q1015 NOSIG
18:50
V
3 °C 10 km+ - 080° 080° 2 kt METAR LIME 061750Z 08002KT CAVOK 03/03 Q1014 NOSIG
18:20
V
4 °C 10 km+ - Var Var 1 kt METAR LIME 061720Z VRB01KT CAVOK 04/03 Q1015 NOSIG
17:50
V
4 °C 10 km+ - 200° 200° 1 kt METAR LIME 061650Z 20001KT CAVOK 04/03 Q1014 NOSIG
17:20
V
5 °C 10 km+ - Var Var 1 kt METAR LIME 061620Z VRB01KT CAVOK 05/03 Q1014 NOSIG
16:50
V
6 °C 10 km+ - Var 000° 0 kt METAR LIME 061550Z 00000KT CAVOK 06/03 Q1014 NOSIG
16:20
V
8 °C 10 km+ - 230° 230° 2 kt METAR LIME 061520Z 23002KT CAVOK 08/03 Q1014 NOSIG
15:50
V
9 °C 10 km+ - Var Var 2 kt METAR LIME 061450Z VRB02KT CAVOK 09/04 Q1014 NOSIG
15:20
V
9 °C 10 km+ - 210° 210° 4 kt METAR LIME 061420Z 21004KT 180V250 CAVOK 09/04 Q1014 NOSIG
14:50
V
9 °C 10 km+ - 200° 200° 4 kt METAR LIME 061350Z 20004KT CAVOK 09/03 Q1014 NOSIG
14:20
V
9 °C 10 km+ - 200° 200° 4 kt METAR LIME 061320Z 20004KT 160V220 CAVOK 09/04 Q1015 NOSIG
13:50
V
9 °C 10 km+ - 220° 220° 4 kt METAR LIME 061250Z 22004KT 190V250 CAVOK 09/03 Q1015 NOSIG
13:20
V
9 °C 10 km+ - 190° 190° 4 kt METAR LIME 061220Z 19004KT 150V240 CAVOK 09/04 Q1015 NOSIG
12:50
V
9 °C 10 km+ - 180° 180° 4 kt METAR LIME 061150Z 18004KT 150V220 CAVOK 09/04 Q1015 NOSIG
12:20
V
9 °C 10 km+ - 210° 210° 3 kt METAR LIME 061120Z 21003KT 160V260 CAVOK 09/01 Q1016 NOSIG
11:50
V
9 °C 10 km+ - Var Var 1 kt METAR LIME 061050Z VRB01KT CAVOK 09/02 Q1016 NOSIG
11:20
V
8 °C 10 km+ - Var Var 1 kt METAR LIME 061020Z VRB01KT CAVOK 08/03 Q1016 NOSIG
10:50
V
8 °C 10 km+ - Var Var 1 kt METAR LIME 060950Z VRB01KT CAVOK 08/03 Q1016 NOSIG
10:20
V
6 °C 10 km+ - 020° 020° 3 kt METAR LIME 060920Z 02003KT CAVOK 06/02 Q1016 NOSIG
09:50
V
5 °C 10 km+ - 340° 340° 3 kt METAR LIME 060850Z 34003KT 310V010 CAVOK 05/02 Q1016 NOSIG
09:20
V
4 °C 10 km+ - 320° 320° 3 kt METAR LIME 060820Z 32003KT CAVOK 04/01 Q1016 NOSIG
08:50
V
3 °C 10 km+ - 330° 330° 2 kt METAR LIME 060750Z 33002KT CAVOK 03/01 Q1016 NOSIG
08:20
V
2 °C 10 km+ - 360° 360° 4 kt METAR LIME 060720Z 36004KT CAVOK 02/01 Q1016 NOSIG
07:50
V
1 °C 10 km+ - 020° 020° 4 kt METAR LIME 060650Z 02004KT CAVOK 01/01 Q1016 NOSIG
07:20
V
1 °C 10 km+ - 350° 350° 2 kt METAR LIME 060620Z 35002KT CAVOK 01/00 Q1016 NOSIG
06:50
V
1 °C 10 km+ - 330° 330° 3 kt METAR LIME 060550Z 33003KT CAVOK 01/01 Q1016 NOSIG
06:20
V
2 °C 10 km+ - Var Var 1 kt METAR LIME 060520Z VRB01KT CAVOK 02/01 Q1016 NOSIG
05:50
V
2 °C 10 km+ - Var Var 1 kt METAR LIME 060450Z VRB01KT CAVOK 02/01 Q1016 NOSIG
05:20
V
3 °C 10 km+ - 020° 020° 7 kt METAR LIME 060420Z 02007KT CAVOK 03/01 Q1016 NOSIG
04:50
V
2 °C 10 km+ - 360° 360° 5 kt METAR LIME 060350Z 36005KT CAVOK 02/02 Q1016 NOSIG
04:20
V
2 °C 10 km+ - 010° 010° 6 kt METAR LIME 060320Z 01006KT CAVOK 02/01 Q1016 NOSIG
03:20
V
3 °C 10 km+ - 360° 360° 5 kt METAR LIME 060220Z 36005KT CAVOK 03/02 Q1016 NOSIG
02:50
V
3 °C 10 km+ - 360° 360° 4 kt METAR LIME 060150Z 36004KT CAVOK 03/02 Q1016 NOSIG
02:20
V
3 °C 10 km+ - Var Var 2 kt METAR LIME 060120Z VRB02KT CAVOK 03/02 Q1016 NOSIG
01:50
V
4 °C 10 km+ - 360° 360° 3 kt METAR LIME 060050Z 36003KT 310V020 CAVOK 04/03 Q1016 NOSIG
01:20
V
3 °C 10 km+ - 360° 360° 4 kt METAR LIME 060020Z 36004KT CAVOK 03/02 Q1016 NOSIG
00:50
V
4 °C 10 km+ - 320° 320° 5 kt METAR LIME 052350Z 32005KT CAVOK 04/04 Q1017 NOSIG
00:20
V
3 °C 10 km+ - Var Var 2 kt METAR LIME 052320Z VRB02KT CAVOK 03/03 Q1017 NOSIG

December 5, 2022

Time Code Weather Temp. Visibility Ceiling Wind METAR/SPECI
23:50
V
4 °C 10 km+ - 340° 340° 2 kt METAR LIME 052250Z 34002KT CAVOK 04/04 Q1017 NOSIG
23:20
V
4 °C 10 km+ - Var Var 2 kt METAR LIME 052220Z VRB02KT 9999 FEW003 04/04 Q1017 NOSIG
22:50
V
5 °C 10 km+ - Var Var 2 kt METAR LIME 052150Z VRB02KT 9999 FEW001 05/05 Q1017 NOSIG
22:20
V
6 °C 10 km+ - 350° 350° 2 kt METAR LIME 052120Z 35002KT 9999 FEW005 06/05 Q1017 NOSIG
21:50
V
7 °C 10 km+ - 290° 290° 3 kt METAR LIME 052050Z 29003KT 9999 FEW020 07/06 Q1017 NOSIG
21:20
V
7 °C 8 km - 290° 290° 4 kt METAR LIME 052020Z 29004KT 8000 SCT025 07/07 Q1017 NOSIG
20:50
M
8 °C 6 km 2,000 ft 300° 300° 3 kt METAR LIME 051950Z 30003KT 6000 BKN020 08/08 Q1017 NOSIG
20:20
M
8 °C 5 km 2,000 ft 270° 270° 6 kt METAR LIME 051920Z 27006KT 5000 BR SCT004 BKN020 08/08 Q1017 NOSIG
19:50
L
8 °C 3 km 300 ft 270° 270° 6 kt METAR LIME 051850Z 27006KT 3000 BR BKN003 08/08 Q1017 NOSIG
19:20
L
8 °C 500 m 200 ft 260° 260° 6 kt METAR LIME 051820Z 26006KT 0500 R28/1200U FG BKN002 08/08 Q1017 NOSIG
18:50
I
8 °C 2 km - 290° 290° 4 kt METAR LIME 051750Z 29004KT 2000 BCFG SCT002 SCT015 08/08 Q1017 NOSIG
18:20
I
8 °C 2 km - 240° 240° 4 kt METAR LIME 051720Z 24004KT 210V280 2000 R28/0750U BCFG SCT002 SCT015 08/07 Q1017 NOSIG
17:50
M
7 °C 5 km 2,000 ft 240° 240° 4 kt METAR LIME 051650Z 24004KT 5000 BR SCT002 BKN020 07/06 Q1016 NOSIG
17:20
V
8 °C 8 km - Var Var 2 kt METAR LIME 051620Z VRB02KT 8000 SCT015 SCT045 08/08 Q1016 NOSIG
16:50
V
9 °C 8 km 4,500 ft 240° 240° 5 kt METAR LIME 051550Z 24005KT 8000 SCT015 BKN045 09/08 Q1016 NOSIG
16:20
V
9 °C 10 km+ 4,500 ft 250° 250° 5 kt METAR LIME 051520Z 25005KT 9999 SCT015 BKN045 09/08 Q1016 NOSIG
15:50
M
10 °C 8 km 1,500 ft Var Var 2 kt METAR LIME 051450Z VRB02KT 8000 BKN015 10/08 Q1016 NOSIG
15:20
M
10 °C 8 km 1,500 ft Var Var 2 kt METAR LIME 051420Z VRB02KT 8000 BKN015 10/08 Q1016 NOSIG
14:50
M
10 °C 8 km 1,500 ft Var Var 2 kt METAR LIME 051350Z VRB02KT 8000 BKN015 10/09 Q1016 NOSIG
14:20
M
10 °C 7 km 1,500 ft Var Var 1 kt METAR LIME 051320Z VRB01KT 7000 BKN015 10/09 Q1016 NOSIG
13:50
M
10 °C 6 km 1,000 ft Var Var 2 kt METAR LIME 051250Z VRB02KT 6000 SCT005 BKN010 10/08 Q1016 NOSIG
13:20
M
9 °C 6 km 1,000 ft Var Var 1 kt METAR LIME 051220Z VRB01KT 6000 -RA SCT005 BKN010 09/08 Q1017 NOSIG
12:50
I
9 °C 5 km 500 ft Var Var 2 kt METAR LIME 051150Z VRB02KT 5000 -RA BR BKN005 09/08 Q1017 NOSIG
12:20
I
9 °C 5 km 500 ft Var Var 2 kt METAR LIME 051120Z VRB02KT 5000 -RA BR BKN005 09/08 Q1017 NOSIG
11:50
M
9 °C 5 km 5,000 ft 270° 270° 4 kt METAR LIME 051050Z 27004KT 240V300 5000 -RA BR BKN050 09/08 Q1018 NOSIG
11:20
L
8 °C 6 km 400 ft Var Var 2 kt METAR LIME 051020Z VRB02KT 6000 -RA BKN004 08/08 Q1018 NOSIG
10:50
I
8 °C 4 km 2,000 ft Var Var 4 kt METAR LIME 050950Z VRB04KT 4000 -RA BR SCT003 BKN020 08/08 Q1018 NOSIG

We and third parties follow your internet behavior on our website with cookies. If you continue, we assume you agree with our cookie policy.